sensor_id;sensor_type;location;lat;lon;timestamp;temperature;humidity
19680;DHT22;9989;48.962;9.182;2023-09-19T00:00:16;19.60;99.90
19680;DHT22;9989;48.962;9.182;2023-09-19T00:02:45;19.60;99.90
19680;DHT22;9989;48.962;9.182;2023-09-19T00:05:12;19.60;99.90
19680;DHT22;9989;48.962;9.182;2023-09-19T00:07:39;19.60;99.90
19680;DHT22;9989;48.962;9.182;2023-09-19T00:10:06;19.60;99.90
19680;DHT22;9989;48.962;9.182;2023-09-19T00:12:34;19.60;99.90
19680;DHT22;9989;48.962;9.182;2023-09-19T00:14:59;19.60;99.90
19680;DHT22;9989;48.962;9.182;2023-09-19T00:17:26;19.60;99.90
19680;DHT22;9989;48.962;9.182;2023-09-19T00:19:52;19.60;99.90
19680;DHT22;9989;48.962;9.182;2023-09-19T00:22:17;19.50;99.90
19680;DHT22;9989;48.962;9.182;2023-09-19T00:24:44;19.50;99.90
19680;DHT22;9989;48.962;9.182;2023-09-19T00:27:10;19.50;99.90
19680;DHT22;9989;48.962;9.182;2023-09-19T00:29:35;19.50;99.90
19680;DHT22;9989;48.962;9.182;2023-09-19T00:32:01;19.40;99.90
19680;DHT22;9989;48.962;9.182;2023-09-19T00:34:29;19.40;99.90
19680;DHT22;9989;48.962;9.182;2023-09-19T00:36:56;19.30;99.90
19680;DHT22;9989;48.962;9.182;2023-09-19T00:39:21;19.30;99.90
19680;DHT22;9989;48.962;9.182;2023-09-19T00:41:47;19.20;99.90
19680;DHT22;9989;48.962;9.182;2023-09-19T00:44:13;19.20;99.90
19680;DHT22;9989;48.962;9.182;2023-09-19T00:46:39;19.20;99.90
19680;DHT22;9989;48.962;9.182;2023-09-19T00:49:07;19.20;99.90
19680;DHT22;9989;48.962;9.182;2023-09-19T00:51:34;19.10;99.90
19680;DHT22;9989;48.962;9.182;2023-09-19T00:54:01;19.10;99.90
19680;DHT22;9989;48.962;9.182;2023-09-19T00:56:28;19.10;99.90
19680;DHT22;9989;48.962;9.182;2023-09-19T00:58:53;19.20;99.90
19680;DHT22;9989;48.962;9.182;2023-09-19T01:01:20;19.20;99.90
19680;DHT22;9989;48.962;9.182;2023-09-19T01:03:46;19.10;99.90
19680;DHT22;9989;48.962;9.182;2023-09-19T01:06:11;19.10;99.90
19680;DHT22;9989;48.962;9.182;2023-09-19T01:08:37;19.20;99.90
19680;DHT22;9989;48.962;9.182;2023-09-19T01:16:58;19.10;99.90
19680;DHT22;9989;48.962;9.182;2023-09-19T01:22:28;19.10;99.90
19680;DHT22;9989;48.962;9.182;2023-09-19T01:25:20;19.00;99.90
19680;DHT22;9989;48.962;9.182;2023-09-19T01:30:27;19.00;99.90
19680;DHT22;9989;48.962;9.182;2023-09-19T01:32:59;19.00;99.90
19680;DHT22;9989;48.962;9.182;2023-09-19T01:35:24;19.00;99.90
19680;DHT22;9989;48.962;9.182;2023-09-19T01:37:50;19.00;99.90
19680;DHT22;9989;48.962;9.182;2023-09-19T01:40:19;19.00;99.90
19680;DHT22;9989;48.962;9.182;2023-09-19T01:50:43;19.10;99.90
19680;DHT22;9989;48.962;9.182;2023-09-19T01:53:23;19.10;99.90
19680;DHT22;9989;48.962;9.182;2023-09-19T01:55:50;19.10;99.90
19680;DHT22;9989;48.962;9.182;2023-09-19T02:01:00;19.10;99.90
19680;DHT22;9989;48.962;9.182;2023-09-19T02:03:27;19.10;99.90
19680;DHT22;9989;48.962;9.182;2023-09-19T02:05:54;19.10;99.90
19680;DHT22;9989;48.962;9.182;2023-09-19T02:08:21;19.10;99.90
19680;DHT22;9989;48.962;9.182;2023-09-19T02:10:49;19.10;99.90
19680;DHT22;9989;48.962;9.182;2023-09-19T02:13:19;19.10;99.90
19680;DHT22;9989;48.962;9.182;2023-09-19T02:15:45;19.10;99.90
19680;DHT22;9989;48.962;9.182;2023-09-19T02:18:12;19.20;99.90
19680;DHT22;9989;48.962;9.182;2023-09-19T02:20:38;19.20;99.90
19680;DHT22;9989;48.962;9.182;2023-09-19T02:23:04;19.10;99.90
19680;DHT22;9989;48.962;9.182;2023-09-19T02:25:30;19.10;99.90
19680;DHT22;9989;48.962;9.182;2023-09-19T02:27:57;19.10;99.90
19680;DHT22;9989;48.962;9.182;2023-09-19T02:30:24;19.10;99.90
19680;DHT22;9989;48.962;9.182;2023-09-19T02:32:51;19.10;99.90
19680;DHT22;9989;48.962;9.182;2023-09-19T02:35:17;19.00;99.90
19680;DHT22;9989;48.962;9.182;2023-09-19T02:37:48;19.00;99.90
19680;DHT22;9989;48.962;9.182;2023-09-19T02:40:14;19.00;99.90
19680;DHT22;9989;48.962;9.182;2023-09-19T02:42:53;19.00;99.90
19680;DHT22;9989;48.962;9.182;2023-09-19T02:45:20;19.00;99.90
19680;DHT22;9989;48.962;9.182;2023-09-19T02:47:46;18.90;99.90
19680;DHT22;9989;48.962;9.182;2023-09-19T02:50:13;18.90;99.90
19680;DHT22;9989;48.962;9.182;2023-09-19T02:52:45;18.90;99.90
19680;DHT22;9989;48.962;9.182;2023-09-19T02:55:12;18.90;99.90
19680;DHT22;9989;48.962;9.182;2023-09-19T02:57:39;18.90;99.90
19680;DHT22;9989;48.962;9.182;2023-09-19T03:00:09;18.90;99.90
19680;DHT22;9989;48.962;9.182;2023-09-19T03:02:37;18.90;99.90
19680;DHT22;9989;48.962;9.182;2023-09-19T03:05:05;18.90;99.90
19680;DHT22;9989;48.962;9.182;2023-09-19T03:07:31;18.90;99.90
19680;DHT22;9989;48.962;9.182;2023-09-19T03:09:57;18.90;99.90
19680;DHT22;9989;48.962;9.182;2023-09-19T03:12:22;18.90;99.90
19680;DHT22;9989;48.962;9.182;2023-09-19T03:14:48;18.90;99.90
19680;DHT22;9989;48.962;9.182;2023-09-19T03:17:14;18.90;99.90
19680;DHT22;9989;48.962;9.182;2023-09-19T03:19:40;18.80;99.90
19680;DHT22;9989;48.962;9.182;2023-09-19T03:22:06;18.80;99.90
19680;DHT22;9989;48.962;9.182;2023-09-19T03:24:31;18.80;99.90
19680;DHT22;9989;48.962;9.182;2023-09-19T03:26:59;18.70;99.90
19680;DHT22;9989;48.962;9.182;2023-09-19T03:29:24;18.70;99.90
19680;DHT22;9989;48.962;9.182;2023-09-19T03:31:51;18.70;99.90
19680;DHT22;9989;48.962;9.182;2023-09-19T03:34:16;18.70;99.90
19680;DHT22;9989;48.962;9.182;2023-09-19T03:36:42;18.60;99.90
19680;DHT22;9989;48.962;9.182;2023-09-19T03:39:08;18.60;99.90
19680;DHT22;9989;48.962;9.182;2023-09-19T03:41:33;18.60;99.90
19680;DHT22;9989;48.962;9.182;2023-09-19T03:44:02;18.60;99.90
19680;DHT22;9989;48.962;9.182;2023-09-19T03:46:28;18.60;99.90
19680;DHT22;9989;48.962;9.182;2023-09-19T03:48:53;18.60;99.90
19680;DHT22;9989;48.962;9.182;2023-09-19T03:51:20;18.50;99.90
19680;DHT22;9989;48.962;9.182;2023-09-19T03:53:46;18.50;99.90
19680;DHT22;9989;48.962;9.182;2023-09-19T03:56:11;18.50;99.90
19680;DHT22;9989;48.962;9.182;2023-09-19T03:58:37;18.60;99.90
19680;DHT22;9989;48.962;9.182;2023-09-19T04:01:05;18.50;99.90
19680;DHT22;9989;48.962;9.182;2023-09-19T04:03:32;18.50;99.90
19680;DHT22;9989;48.962;9.182;2023-09-19T04:06:15;18.50;99.90
19680;DHT22;9989;48.962;9.182;2023-09-19T04:08:41;18.50;99.90
19680;DHT22;9989;48.962;9.182;2023-09-19T04:11:06;18.60;99.90
19680;DHT22;9989;48.962;9.182;2023-09-19T04:13:32;18.50;99.90
19680;DHT22;9989;48.962;9.182;2023-09-19T04:15:58;18.50;99.90
19680;DHT22;9989;48.962;9.182;2023-09-19T04:18:23;18.50;99.90
19680;DHT22;9989;48.962;9.182;2023-09-19T04:20:49;18.50;99.90
19680;DHT22;9989;48.962;9.182;2023-09-19T04:23:16;18.40;99.90
19680;DHT22;9989;48.962;9.182;2023-09-19T04:25:42;18.20;99.90
19680;DHT22;9989;48.962;9.182;2023-09-19T04:28:08;18.20;99.90
19680;DHT22;9989;48.962;9.182;2023-09-19T04:30:35;18.10;99.90
19680;DHT22;9989;48.962;9.182;2023-09-19T04:33:01;18.10;99.90
19680;DHT22;9989;48.962;9.182;2023-09-19T04:35:27;18.00;99.90
19680;DHT22;9989;48.962;9.182;2023-09-19T04:37:54;18.00;99.90
19680;DHT22;9989;48.962;9.182;2023-09-19T04:40:20;18.00;99.90
19680;DHT22;9989;48.962;9.182;2023-09-19T04:42:53;18.00;99.90
19680;DHT22;9989;48.962;9.182;2023-09-19T04:45:25;18.00;99.90
19680;DHT22;9989;48.962;9.182;2023-09-19T04:47:51;18.00;99.90
19680;DHT22;9989;48.962;9.182;2023-09-19T04:50:17;18.00;99.90
19680;DHT22;9989;48.962;9.182;2023-09-19T04:52:44;18.10;99.90
19680;DHT22;9989;48.962;9.182;2023-09-19T04:55:13;18.00;99.90
19680;DHT22;9989;48.962;9.182;2023-09-19T04:57:46;18.00;99.90
19680;DHT22;9989;48.962;9.182;2023-09-19T05:00:14;18.10;99.90
19680;DHT22;9989;48.962;9.182;2023-09-19T05:02:40;18.10;99.90
19680;DHT22;9989;48.962;9.182;2023-09-19T05:05:08;18.10;99.90
19680;DHT22;9989;48.962;9.182;2023-09-19T05:07:34;18.10;99.90
19680;DHT22;9989;48.962;9.182;2023-09-19T05:10:00;18.10;99.90
19680;DHT22;9989;48.962;9.182;2023-09-19T05:12:28;18.10;99.90
19680;DHT22;9989;48.962;9.182;2023-09-19T05:14:55;18.10;99.90
19680;DHT22;9989;48.962;9.182;2023-09-19T05:17:20;18.10;99.90
19680;DHT22;9989;48.962;9.182;2023-09-19T05:19:46;18.10;99.90
19680;DHT22;9989;48.962;9.182;2023-09-19T05:22:12;18.10;99.90
19680;DHT22;9989;48.962;9.182;2023-09-19T05:24:38;18.20;99.90
19680;DHT22;9989;48.962;9.182;2023-09-19T05:27:04;18.20;99.90
19680;DHT22;9989;48.962;9.182;2023-09-19T05:29:32;18.20;99.90
19680;DHT22;9989;48.962;9.182;2023-09-19T05:31:59;18.20;99.90
19680;DHT22;9989;48.962;9.182;2023-09-19T05:34:24;18.20;99.90
19680;DHT22;9989;48.962;9.182;2023-09-19T05:36:51;18.10;99.90
19680;DHT22;9989;48.962;9.182;2023-09-19T05:39:17;18.10;99.90
19680;DHT22;9989;48.962;9.182;2023-09-19T05:41:43;18.10;99.90
19680;DHT22;9989;48.962;9.182;2023-09-19T05:44:08;18.10;99.90
19680;DHT22;9989;48.962;9.182;2023-09-19T05:46:34;18.10;99.90
19680;DHT22;9989;48.962;9.182;2023-09-19T05:49:00;18.10;99.90
19680;DHT22;9989;48.962;9.182;2023-09-19T05:51:25;18.10;99.90
19680;DHT22;9989;48.962;9.182;2023-09-19T05:53:54;18.10;99.90
19680;DHT22;9989;48.962;9.182;2023-09-19T05:56:20;18.10;99.90
19680;DHT22;9989;48.962;9.182;2023-09-19T05:58:46;18.10;99.90
19680;DHT22;9989;48.962;9.182;2023-09-19T06:01:11;18.10;99.90
19680;DHT22;9989;48.962;9.182;2023-09-19T06:03:37;18.20;99.90
19680;DHT22;9989;48.962;9.182;2023-09-19T06:06:03;18.20;99.90
19680;DHT22;9989;48.962;9.182;2023-09-19T06:08:29;18.20;99.90
19680;DHT22;9989;48.962;9.182;2023-09-19T06:10:56;18.20;99.90
19680;DHT22;9989;48.962;9.182;2023-09-19T06:13:22;18.20;99.90
19680;DHT22;9989;48.962;9.182;2023-09-19T06:15:48;18.20;99.90
19680;DHT22;9989;48.962;9.182;2023-09-19T06:18:15;18.20;99.90
19680;DHT22;9989;48.962;9.182;2023-09-19T06:20:47;18.20;99.90
19680;DHT22;9989;48.962;9.182;2023-09-19T06:23:14;18.20;99.90
19680;DHT22;9989;48.962;9.182;2023-09-19T06:25:40;18.20;99.90
19680;DHT22;9989;48.962;9.182;2023-09-19T06:28:06;18.30;99.90
19680;DHT22;9989;48.962;9.182;2023-09-19T06:30:33;18.30;99.90
19680;DHT22;9989;48.962;9.182;2023-09-19T06:33:00;18.30;99.90
19680;DHT22;9989;48.962;9.182;2023-09-19T06:35:26;18.40;99.90
19680;DHT22;9989;48.962;9.182;2023-09-19T06:37:55;18.40;99.90
19680;DHT22;9989;48.962;9.182;2023-09-19T06:40:23;18.40;99.90
19680;DHT22;9989;48.962;9.182;2023-09-19T06:42:53;18.50;99.90
19680;DHT22;9989;48.962;9.182;2023-09-19T06:45:19;18.50;99.90
19680;DHT22;9989;48.962;9.182;2023-09-19T06:47:48;18.60;99.90
19680;DHT22;9989;48.962;9.182;2023-09-19T06:50:15;18.70;99.90
19680;DHT22;9989;48.962;9.182;2023-09-19T06:52:45;18.80;99.90
19680;DHT22;9989;48.962;9.182;2023-09-19T06:55:12;18.90;99.90
19680;DHT22;9989;48.962;9.182;2023-09-19T06:57:41;19.00;99.90
19680;DHT22;9989;48.962;9.182;2023-09-19T07:00:08;19.10;99.90
19680;DHT22;9989;48.962;9.182;2023-09-19T07:05:35;19.30;99.90
19680;DHT22;9989;48.962;9.182;2023-09-19T07:08:08;19.50;99.90
19680;DHT22;9989;48.962;9.182;2023-09-19T07:10:36;19.50;99.90
19680;DHT22;9989;48.962;9.182;2023-09-19T07:13:06;19.60;99.90
19680;DHT22;9989;48.962;9.182;2023-09-19T07:15:36;19.70;99.90
19680;DHT22;9989;48.962;9.182;2023-09-19T07:18:05;19.70;99.90
19680;DHT22;9989;48.962;9.182;2023-09-19T07:20:32;19.70;99.90
19680;DHT22;9989;48.962;9.182;2023-09-19T07:23:01;19.70;99.90
19680;DHT22;9989;48.962;9.182;2023-09-19T07:25:27;19.70;99.90
19680;DHT22;9989;48.962;9.182;2023-09-19T07:27:55;19.70;99.90
19680;DHT22;9989;48.962;9.182;2023-09-19T07:30:21;19.70;99.90
19680;DHT22;9989;48.962;9.182;2023-09-19T07:32:47;19.70;99.90
19680;DHT22;9989;48.962;9.182;2023-09-19T07:35:13;19.70;99.90
19680;DHT22;9989;48.962;9.182;2023-09-19T07:37:40;19.80;99.90
19680;DHT22;9989;48.962;9.182;2023-09-19T07:40:06;19.80;99.90
19680;DHT22;9989;48.962;9.182;2023-09-19T07:42:33;19.90;99.90
19680;DHT22;9989;48.962;9.182;2023-09-19T07:45:01;19.90;99.90
19680;DHT22;9989;48.962;9.182;2023-09-19T07:47:26;20.00;99.90
19680;DHT22;9989;48.962;9.182;2023-09-19T07:49:53;20.00;99.90
19680;DHT22;9989;48.962;9.182;2023-09-19T07:52:18;20.10;99.90
19680;DHT22;9989;48.962;9.182;2023-09-19T07:54:44;20.20;99.90
19680;DHT22;9989;48.962;9.182;2023-09-19T07:57:10;20.20;99.90
19680;DHT22;9989;48.962;9.182;2023-09-19T07:59:37;20.30;99.90
19680;DHT22;9989;48.962;9.182;2023-09-19T08:02:04;20.40;99.90
19680;DHT22;9989;48.962;9.182;2023-09-19T08:04:30;20.40;99.90
19680;DHT22;9989;48.962;9.182;2023-09-19T08:06:59;20.40;99.90
19680;DHT22;9989;48.962;9.182;2023-09-19T08:09:26;20.50;99.90
19680;DHT22;9989;48.962;9.182;2023-09-19T08:11:51;20.60;99.90
19680;DHT22;9989;48.962;9.182;2023-09-19T08:14:17;20.60;99.90
19680;DHT22;9989;48.962;9.182;2023-09-19T08:16:43;20.80;99.90
19680;DHT22;9989;48.962;9.182;2023-09-19T08:19:09;21.00;99.90
19680;DHT22;9989;48.962;9.182;2023-09-19T08:21:36;21.10;99.90
19680;DHT22;9989;48.962;9.182;2023-09-19T08:24:02;21.30;99.90
19680;DHT22;9989;48.962;9.182;2023-09-19T08:26:31;21.50;99.90
19680;DHT22;9989;48.962;9.182;2023-09-19T08:28:57;21.60;99.90
19680;DHT22;9989;48.962;9.182;2023-09-19T08:31:22;21.60;99.90
19680;DHT22;9989;48.962;9.182;2023-09-19T08:33:49;21.60;99.90
19680;DHT22;9989;48.962;9.182;2023-09-19T08:36:15;21.70;99.90
19680;DHT22;9989;48.962;9.182;2023-09-19T08:38:41;21.80;99.90
19680;DHT22;9989;48.962;9.182;2023-09-19T08:41:08;21.90;99.90
19680;DHT22;9989;48.962;9.182;2023-09-19T08:43:34;22.00;99.90
19680;DHT22;9989;48.962;9.182;2023-09-19T08:46:09;22.10;99.90
19680;DHT22;9989;48.962;9.182;2023-09-19T08:48:39;22.30;99.90
19680;DHT22;9989;48.962;9.182;2023-09-19T08:51:12;22.40;99.90
19680;DHT22;9989;48.962;9.182;2023-09-19T08:53:43;22.40;99.90
19680;DHT22;9989;48.962;9.182;2023-09-19T08:56:14;22.20;99.90
19680;DHT22;9989;48.962;9.182;2023-09-19T08:58:50;22.10;99.90
19680;DHT22;9989;48.962;9.182;2023-09-19T09:01:18;22.00;99.90
19680;DHT22;9989;48.962;9.182;2023-09-19T09:03:51;22.00;99.90
19680;DHT22;9989;48.962;9.182;2023-09-19T09:06:17;22.00;99.90
19680;DHT22;9989;48.962;9.182;2023-09-19T09:08:46;21.90;99.90
19680;DHT22;9989;48.962;9.182;2023-09-19T09:11:13;22.00;99.90
19680;DHT22;9989;48.962;9.182;2023-09-19T09:13:39;22.10;99.90
19680;DHT22;9989;48.962;9.182;2023-09-19T09:16:07;22.30;99.90
19680;DHT22;9989;48.962;9.182;2023-09-19T09:18:34;22.50;99.90
19680;DHT22;9989;48.962;9.182;2023-09-19T09:20:59;22.60;99.90
19680;DHT22;9989;48.962;9.182;2023-09-19T09:23:27;22.70;99.90
19680;DHT22;9989;48.962;9.182;2023-09-19T09:25:55;22.80;99.90
19680;DHT22;9989;48.962;9.182;2023-09-19T09:28:29;22.90;99.90
19680;DHT22;9989;48.962;9.182;2023-09-19T09:30:56;22.90;99.90
19680;DHT22;9989;48.962;9.182;2023-09-19T09:33:24;23.00;99.90
19680;DHT22;9989;48.962;9.182;2023-09-19T09:35:56;23.10;99.90
19680;DHT22;9989;48.962;9.182;2023-09-19T09:38:27;23.10;99.90
19680;DHT22;9989;48.962;9.182;2023-09-19T09:40:54;23.10;99.90
19680;DHT22;9989;48.962;9.182;2023-09-19T09:43:39;23.00;99.90
19680;DHT22;9989;48.962;9.182;2023-09-19T09:46:17;23.10;99.90
19680;DHT22;9989;48.962;9.182;2023-09-19T09:48:45;23.00;99.90
19680;DHT22;9989;48.962;9.182;2023-09-19T09:51:32;22.90;99.90
19680;DHT22;9989;48.962;9.182;2023-09-19T09:57:01;22.70;99.90
19680;DHT22;9989;48.962;9.182;2023-09-19T10:02:28;22.60;99.90
19680;DHT22;9989;48.962;9.182;2023-09-19T10:05:19;22.40;99.90
19680;DHT22;9989;48.962;9.182;2023-09-19T10:07:55;22.40;99.90
19680;DHT22;9989;48.962;9.182;2023-09-19T10:13:13;22.40;99.90
19680;DHT22;9989;48.962;9.182;2023-09-19T10:15:43;22.30;99.90
19680;DHT22;9989;48.962;9.182;2023-09-19T10:18:14;22.20;99.90
19680;DHT22;9989;48.962;9.182;2023-09-19T10:20:45;22.10;99.90
19680;DHT22;9989;48.962;9.182;2023-09-19T10:23:11;22.20;99.90
19680;DHT22;9989;48.962;9.182;2023-09-19T10:25:44;22.60;99.90
19680;DHT22;9989;48.962;9.182;2023-09-19T10:28:14;23.00;99.90
19680;DHT22;9989;48.962;9.182;2023-09-19T10:30:44;23.10;99.90
19680;DHT22;9989;48.962;9.182;2023-09-19T10:33:14;23.20;99.90
19680;DHT22;9989;48.962;9.182;2023-09-19T10:35:45;23.40;99.90
19680;DHT22;9989;48.962;9.182;2023-09-19T10:38:13;23.60;99.90
19680;DHT22;9989;48.962;9.182;2023-09-19T10:40:40;24.00;99.90
19680;DHT22;9989;48.962;9.182;2023-09-19T10:43:16;24.30;99.90
19680;DHT22;9989;48.962;9.182;2023-09-19T10:45:44;24.20;99.90
19680;DHT22;9989;48.962;9.182;2023-09-19T10:48:12;24.00;99.90
19680;DHT22;9989;48.962;9.182;2023-09-19T10:53:25;23.50;99.90
19680;DHT22;9989;48.962;9.182;2023-09-19T10:55:56;23.30;99.90
19680;DHT22;9989;48.962;9.182;2023-09-19T10:58:27;23.10;99.90
19680;DHT22;9989;48.962;9.182;2023-09-19T11:01:00;23.00;99.90
19680;DHT22;9989;48.962;9.182;2023-09-19T11:03:42;23.20;99.90
19680;DHT22;9989;48.962;9.182;2023-09-19T11:06:14;23.70;99.90
19680;DHT22;9989;48.962;9.182;2023-09-19T11:09:03;24.30;99.90
19680;DHT22;9989;48.962;9.182;2023-09-19T11:30:41;25.50;93.50
19680;DHT22;9989;48.962;9.182;2023-09-19T11:33:20;25.40;94.90
19680;DHT22;9989;48.962;9.182;2023-09-19T11:43:50;28.20;90.70
19680;DHT22;9989;48.962;9.182;2023-09-19T11:46:17;28.80;88.90
19680;DHT22;9989;48.962;9.182;2023-09-19T11:48:48;29.30;83.10
19680;DHT22;9989;48.962;9.182;2023-09-19T11:51:22;29.30;79.40
19680;DHT22;9989;48.962;9.182;2023-09-19T11:53:52;29.10;79.80
19680;DHT22;9989;48.962;9.182;2023-09-19T11:56:20;29.30;78.40
19680;DHT22;9989;48.962;9.182;2023-09-19T11:58:49;29.60;75.30
19680;DHT22;9989;48.962;9.182;2023-09-19T12:01:38;29.80;73.80
19680;DHT22;9989;48.962;9.182;2023-09-19T12:04:11;30.10;72.20
19680;DHT22;9989;48.962;9.182;2023-09-19T12:06:37;30.40;70.00
19680;DHT22;9989;48.962;9.182;2023-09-19T12:09:04;30.20;69.30
19680;DHT22;9989;48.962;9.182;2023-09-19T12:11:41;30.10;71.00
19680;DHT22;9989;48.962;9.182;2023-09-19T12:14:09;30.40;71.70
19680;DHT22;9989;48.962;9.182;2023-09-19T12:16:35;31.20;69.30
19680;DHT22;9989;48.962;9.182;2023-09-19T12:19:21;32.00;67.60
19680;DHT22;9989;48.962;9.182;2023-09-19T12:22:00;32.90;65.30
19680;DHT22;9989;48.962;9.182;2023-09-19T12:24:30;33.60;62.40
19680;DHT22;9989;48.962;9.182;2023-09-19T12:27:04;34.50;59.30
19680;DHT22;9989;48.962;9.182;2023-09-19T12:29:31;35.40;56.90
19680;DHT22;9989;48.962;9.182;2023-09-19T12:31:58;35.70;51.30
19680;DHT22;9989;48.962;9.182;2023-09-19T12:34:26;34.40;51.30
19680;DHT22;9989;48.962;9.182;2023-09-19T12:37:12;33.40;54.50
19680;DHT22;9989;48.962;9.182;2023-09-19T12:39:45;33.40;53.10
19680;DHT22;9989;48.962;9.182;2023-09-19T12:42:24;33.80;51.10
19680;DHT22;9989;48.962;9.182;2023-09-19T12:44:53;34.20;50.60
19680;DHT22;9989;48.962;9.182;2023-09-19T12:47:23;34.50;50.40
19680;DHT22;9989;48.962;9.182;2023-09-19T12:50:12;33.90;50.20
19680;DHT22;9989;48.962;9.182;2023-09-19T12:52:45;33.00;51.80
19680;DHT22;9989;48.962;9.182;2023-09-19T12:57:58;32.40;52.50
19680;DHT22;9989;48.962;9.182;2023-09-19T13:00:38;33.10;50.90
19680;DHT22;9989;48.962;9.182;2023-09-19T13:03:13;34.20;51.30
19680;DHT22;9989;48.962;9.182;2023-09-19T13:05:49;35.50;50.30
19680;DHT22;9989;48.962;9.182;2023-09-19T13:08:32;35.90;48.10
19680;DHT22;9989;48.962;9.182;2023-09-19T13:13:39;36.20;48.00
19680;DHT22;9989;48.962;9.182;2023-09-19T13:16:05;37.00;47.70
19680;DHT22;9989;48.962;9.182;2023-09-19T13:18:47;37.90;46.60
19680;DHT22;9989;48.962;9.182;2023-09-19T13:21:15;38.70;44.60
19680;DHT22;9989;48.962;9.182;2023-09-19T13:23:52;39.40;44.50
19680;DHT22;9989;48.962;9.182;2023-09-19T13:26:18;40.10;42.60
19680;DHT22;9989;48.962;9.182;2023-09-19T13:28:45;40.40;42.90
19680;DHT22;9989;48.962;9.182;2023-09-19T13:31:10;40.80;41.30
19680;DHT22;9989;48.962;9.182;2023-09-19T13:33:45;40.90;39.20
19680;DHT22;9989;48.962;9.182;2023-09-19T13:36:11;40.60;40.00
19680;DHT22;9989;48.962;9.182;2023-09-19T13:38:39;40.40;40.20
19680;DHT22;9989;48.962;9.182;2023-09-19T13:41:06;40.20;39.80
19680;DHT22;9989;48.962;9.182;2023-09-19T13:43:32;40.10;40.20
19680;DHT22;9989;48.962;9.182;2023-09-19T13:45:57;40.00;39.70
19680;DHT22;9989;48.962;9.182;2023-09-19T13:48:23;39.70;40.80
19680;DHT22;9989;48.962;9.182;2023-09-19T13:50:49;40.00;41.10
19680;DHT22;9989;48.962;9.182;2023-09-19T13:53:15;40.30;39.40
19680;DHT22;9989;48.962;9.182;2023-09-19T13:55:42;40.20;39.50
19680;DHT22;9989;48.962;9.182;2023-09-19T13:58:08;40.20;39.20
19680;DHT22;9989;48.962;9.182;2023-09-19T14:00:36;39.50;39.40
19680;DHT22;9989;48.962;9.182;2023-09-19T14:03:03;38.10;41.00
19680;DHT22;9989;48.962;9.182;2023-09-19T14:05:29;37.70;42.30
19680;DHT22;9989;48.962;9.182;2023-09-19T14:07:55;37.70;42.70
19680;DHT22;9989;48.962;9.182;2023-09-19T14:10:21;37.90;42.90
19680;DHT22;9989;48.962;9.182;2023-09-19T14:12:47;38.10;41.30
19680;DHT22;9989;48.962;9.182;2023-09-19T14:15:13;37.70;41.70
19680;DHT22;9989;48.962;9.182;2023-09-19T14:17:39;37.20;42.20
19680;DHT22;9989;48.962;9.182;2023-09-19T14:20:07;36.70;42.90
19680;DHT22;9989;48.962;9.182;2023-09-19T14:22:35;36.20;43.50
19680;DHT22;9989;48.962;9.182;2023-09-19T14:25:02;35.50;43.80
19680;DHT22;9989;48.962;9.182;2023-09-19T14:27:28;35.10;44.90
19680;DHT22;9989;48.962;9.182;2023-09-19T14:29:53;34.70;45.60
19680;DHT22;9989;48.962;9.182;2023-09-19T14:32:19;34.40;46.50
19680;DHT22;9989;48.962;9.182;2023-09-19T14:34:45;34.50;45.60
19680;DHT22;9989;48.962;9.182;2023-09-19T14:37:11;34.60;45.70
19680;DHT22;9989;48.962;9.182;2023-09-19T14:39:37;34.20;46.20
19680;DHT22;9989;48.962;9.182;2023-09-19T14:42:05;33.80;46.30
19680;DHT22;9989;48.962;9.182;2023-09-19T14:44:31;33.50;47.20
19680;DHT22;9989;48.962;9.182;2023-09-19T14:46:57;33.10;47.70
19680;DHT22;9989;48.962;9.182;2023-09-19T14:49:22;32.90;48.30
19680;DHT22;9989;48.962;9.182;2023-09-19T14:51:48;32.90;48.20
19680;DHT22;9989;48.962;9.182;2023-09-19T14:54:14;33.10;48.50
19680;DHT22;9989;48.962;9.182;2023-09-19T14:56:42;32.90;48.10
19680;DHT22;9989;48.962;9.182;2023-09-19T14:59:08;32.10;48.50
19680;DHT22;9989;48.962;9.182;2023-09-19T15:01:36;31.30;49.70
19680;DHT22;9989;48.962;9.182;2023-09-19T15:04:02;30.40;51.40
19680;DHT22;9989;48.962;9.182;2023-09-19T15:06:28;29.60;52.50
19680;DHT22;9989;48.962;9.182;2023-09-19T15:08:54;29.30;53.60
19680;DHT22;9989;48.962;9.182;2023-09-19T15:11:19;29.30;53.70
19680;DHT22;9989;48.962;9.182;2023-09-19T15:13:46;29.40;53.20
19680;DHT22;9989;48.962;9.182;2023-09-19T15:16:13;29.60;53.20
19680;DHT22;9989;48.962;9.182;2023-09-19T15:18:44;29.80;52.80
19680;DHT22;9989;48.962;9.182;2023-09-19T15:21:11;29.90;52.90
19680;DHT22;9989;48.962;9.182;2023-09-19T15:23:39;30.00;52.60
19680;DHT22;9989;48.962;9.182;2023-09-19T15:26:06;30.10;52.50
19680;DHT22;9989;48.962;9.182;2023-09-19T15:28:32;30.10;52.80
19680;DHT22;9989;48.962;9.182;2023-09-19T15:31:03;30.20;53.00
19680;DHT22;9989;48.962;9.182;2023-09-19T15:33:30;30.10;52.80
19680;DHT22;9989;48.962;9.182;2023-09-19T15:36:13;29.90;52.50
19680;DHT22;9989;48.962;9.182;2023-09-19T15:43:54;28.70;55.00
19680;DHT22;9989;48.962;9.182;2023-09-19T15:46:20;28.40;55.90
19680;DHT22;9989;48.962;9.182;2023-09-19T15:48:46;28.10;56.50
19680;DHT22;9989;48.962;9.182;2023-09-19T15:51:13;28.10;56.80
19680;DHT22;9989;48.962;9.182;2023-09-19T15:53:47;27.80;56.70
19680;DHT22;9989;48.962;9.182;2023-09-19T15:56:17;27.40;57.70
19680;DHT22;9989;48.962;9.182;2023-09-19T15:58:47;27.00;58.30
19680;DHT22;9989;48.962;9.182;2023-09-19T16:01:14;26.70;59.20
19680;DHT22;9989;48.962;9.182;2023-09-19T16:03:43;26.30;60.20
19680;DHT22;9989;48.962;9.182;2023-09-19T16:06:15;26.10;61.20
19680;DHT22;9989;48.962;9.182;2023-09-19T16:08:41;25.80;62.30
19680;DHT22;9989;48.962;9.182;2023-09-19T16:11:08;25.60;63.50
19680;DHT22;9989;48.962;9.182;2023-09-19T16:13:35;25.40;63.40
19680;DHT22;9989;48.962;9.182;2023-09-19T16:16:01;25.20;63.90
19680;DHT22;9989;48.962;9.182;2023-09-19T16:18:26;25.00;64.70
19680;DHT22;9989;48.962;9.182;2023-09-19T16:20:52;24.80;65.70
19680;DHT22;9989;48.962;9.182;2023-09-19T16:23:18;24.70;66.30
19680;DHT22;9989;48.962;9.182;2023-09-19T16:25:44;24.60;67.00
19680;DHT22;9989;48.962;9.182;2023-09-19T16:28:11;24.50;67.30
19680;DHT22;9989;48.962;9.182;2023-09-19T16:30:37;24.40;67.90
19680;DHT22;9989;48.962;9.182;2023-09-19T16:33:04;24.40;68.70
19680;DHT22;9989;48.962;9.182;2023-09-19T16:35:29;24.30;68.70
19680;DHT22;9989;48.962;9.182;2023-09-19T16:37:55;24.20;69.20
19680;DHT22;9989;48.962;9.182;2023-09-19T16:40:21;24.10;69.50
19680;DHT22;9989;48.962;9.182;2023-09-19T16:42:46;24.00;69.80
19680;DHT22;9989;48.962;9.182;2023-09-19T16:45:12;24.00;70.60
19680;DHT22;9989;48.962;9.182;2023-09-19T16:47:37;23.90;70.60
19680;DHT22;9989;48.962;9.182;2023-09-19T16:50:04;23.80;71.20
19680;DHT22;9989;48.962;9.182;2023-09-19T16:52:31;23.80;71.20
19680;DHT22;9989;48.962;9.182;2023-09-19T16:54:57;23.70;71.30
19680;DHT22;9989;48.962;9.182;2023-09-19T16:57:22;23.60;71.90
19680;DHT22;9989;48.962;9.182;2023-09-19T16:59:48;23.50;72.60
19680;DHT22;9989;48.962;9.182;2023-09-19T17:02:15;23.50;73.30
19680;DHT22;9989;48.962;9.182;2023-09-19T17:04:42;23.40;73.40